<?xml version="1.0" encoding="UTF-8" standalone="no" ?>
<gpx xmlns="http://www.topografix.com/GPX/1/1" xmlns:xsi="http://www.w3.org/2001/XMLSchema-instance" xsi:schemaLocation="http://www.topografix.com/GPX/1/1 http://www.topografix.com/GPX/1/1/gpx.xsd" version="1.1" creator="VisuGPX - https://www.visugpx.com">
  <metadata>
    <name>TAHITI - PEDESTRE - Pirae - Col de Hamuta depuis le belvédère.</name>
    <desc><![CDATA[Randonnée prévue jusqu'au premier refuge mais arrêtée au col]]></desc>
  </metadata>
  <wpt lat="-17.56466" lon="-149.52914">
    <ele>626.900635</ele>
    <name><![CDATA[006]]></name>
    <desc><![CDATA[28-MAI-12 7:19:00]]></desc>
  </wpt>
  <wpt lat="-17.58208" lon="-149.515">
    <ele>1003.494141</ele>
    <name><![CDATA[Col]]></name>
    <desc><![CDATA[28-MAI-12 8:37:32]]></desc>
  </wpt>
  <trk>
    <name><![CDATA[ACTIVE LOG 037]]></name>
    <trkseg>
      <trkpt lat="-17.56457" lon="-149.52905">
        <ele>624.032959</ele>
        <time>2012-05-28T18:18:39Z</time>
      </trkpt>
      <trkpt lat="-17.56457" lon="-149.52906">
        <ele>624.032959</ele>
        <time>2012-05-28T18:18:40Z</time>
      </trkpt>
      <trkpt lat="-17.56456" lon="-149.52907">
        <ele>624.513672</ele>
        <time>2012-05-28T18:18:42Z</time>
      </trkpt>
      <trkpt lat="-17.56464" lon="-149.52913">
        <ele>627.397705</ele>
        <time>2012-05-28T18:18:56Z</time>
      </trkpt>
      <trkpt lat="-17.56474" lon="-149.5291">
        <ele>627.878174</ele>
        <time>2012-05-28T18:19:12Z</time>
      </trkpt>
      <trkpt lat="-17.5648" lon="-149.52904">
        <ele>630.281494</ele>
        <time>2012-05-28T18:19:24Z</time>
      </trkpt>
      <trkpt lat="-17.56489" lon="-149.52895">
        <ele>631.723389</ele>
        <time>2012-05-28T18:19:38Z</time>
      </trkpt>
      <trkpt lat="-17.56497" lon="-149.52887">
        <ele>632.204102</ele>
        <time>2012-05-28T18:19:51Z</time>
      </trkpt>
      <trkpt lat="-17.56504" lon="-149.52885">
        <ele>633.645996</ele>
        <time>2012-05-28T18:20:02Z</time>
      </trkpt>
      <trkpt lat="-17.56512" lon="-149.52882">
        <ele>635.568604</ele>
        <time>2012-05-28T18:20:12Z</time>
      </trkpt>
      <trkpt lat="-17.56521" lon="-149.52876">
        <ele>637.491455</ele>
        <time>2012-05-28T18:20:26Z</time>
      </trkpt>
      <trkpt lat="-17.56529" lon="-149.52866">
        <ele>638.452881</ele>
        <time>2012-05-28T18:20:38Z</time>
      </trkpt>
      <trkpt lat="-17.56533" lon="-149.52859">
        <ele>641.817383</ele>
        <time>2012-05-28T18:20:48Z</time>
      </trkpt>
      <trkpt lat="-17.5654" lon="-149.52853">
        <ele>642.778809</ele>
        <time>2012-05-28T18:20:59Z</time>
      </trkpt>
      <trkpt lat="-17.56546" lon="-149.5286">
        <ele>644.701172</ele>
        <time>2012-05-28T18:21:09Z</time>
      </trkpt>
      <trkpt lat="-17.56546" lon="-149.52866">
        <ele>645.662598</ele>
        <time>2012-05-28T18:21:15Z</time>
      </trkpt>
      <trkpt lat="-17.56552" lon="-149.52875">
        <ele>648.065918</ele>
        <time>2012-05-28T18:21:29Z</time>
      </trkpt>
      <trkpt lat="-17.56557" lon="-149.52864">
        <ele>649.507812</ele>
        <time>2012-05-28T18:21:44Z</time>
      </trkpt>
      <trkpt lat="-17.56561" lon="-149.52857">
        <ele>650.949707</ele>
        <time>2012-05-28T18:21:57Z</time>
      </trkpt>
      <trkpt lat="-17.56564" lon="-149.52852">
        <ele>652.391846</ele>
        <time>2012-05-28T18:22:03Z</time>
      </trkpt>
      <trkpt lat="-17.56574" lon="-149.52848">
        <ele>653.353271</ele>
        <time>2012-05-28T18:22:14Z</time>
      </trkpt>
      <trkpt lat="-17.56578" lon="-149.52845">
        <ele>653.353271</ele>
        <time>2012-05-28T18:22:19Z</time>
      </trkpt>
      <trkpt lat="-17.56589" lon="-149.52843">
        <ele>656.237061</ele>
        <time>2012-05-28T18:22:29Z</time>
      </trkpt>
      <trkpt lat="-17.56598" lon="-149.52837">
        <ele>656.237061</ele>
        <time>2012-05-28T18:22:42Z</time>
      </trkpt>
      <trkpt lat="-17.56611" lon="-149.52833">
        <ele>654.795166</ele>
        <time>2012-05-28T18:23:03Z</time>
      </trkpt>
      <trkpt lat="-17.56615" lon="-149.52828">
        <ele>653.833984</ele>
        <time>2012-05-28T18:23:10Z</time>
      </trkpt>
      <trkpt lat="-17.56632" lon="-149.52812">
        <ele>651.911133</ele>
        <time>2012-05-28T18:23:31Z</time>
      </trkpt>
      <trkpt lat="-17.56652" lon="-149.52794">
        <ele>651.43042</ele>
        <time>2012-05-28T18:23:53Z</time>
      </trkpt>
      <trkpt lat="-17.56664" lon="-149.52785">
        <ele>653.833984</ele>
        <time>2012-05-28T18:24:09Z</time>
      </trkpt>
      <trkpt lat="-17.5668" lon="-149.52772">
        <ele>655.275879</ele>
        <time>2012-05-28T18:24:27Z</time>
      </trkpt>
      <trkpt lat="-17.56688" lon="-149.52762">
        <ele>654.314697</ele>
        <time>2012-05-28T18:24:38Z</time>
      </trkpt>
      <trkpt lat="-17.56705" lon="-149.52755">
        <ele>655.756592</ele>
        <time>2012-05-28T18:24:54Z</time>
      </trkpt>
      <trkpt lat="-17.56726" lon="-149.52745">
        <ele>655.275879</ele>
        <time>2012-05-28T18:25:14Z</time>
      </trkpt>
      <trkpt lat="-17.56732" lon="-149.52741">
        <ele>655.275879</ele>
        <time>2012-05-28T18:25:21Z</time>
      </trkpt>
      <trkpt lat="-17.56747" lon="-149.52736">
        <ele>655.756592</ele>
        <time>2012-05-28T18:25:38Z</time>
      </trkpt>
      <trkpt lat="-17.56748" lon="-149.52735">
        <ele>656.717773</ele>
        <time>2012-05-28T18:25:40Z</time>
      </trkpt>
      <trkpt lat="-17.56753" lon="-149.52733">
        <ele>657.679199</ele>
        <time>2012-05-28T18:25:47Z</time>
      </trkpt>
      <trkpt lat="-17.56756" lon="-149.52731">
        <ele>657.198486</ele>
        <time>2012-05-28T18:25:51Z</time>
      </trkpt>
      <trkpt lat="-17.56767" lon="-149.52724">
        <ele>660.082275</ele>
        <time>2012-05-28T18:26:07Z</time>
      </trkpt>
      <trkpt lat="-17.56776" lon="-149.52722">
        <ele>661.043701</ele>
        <time>2012-05-28T18:26:20Z</time>
      </trkpt>
      <trkpt lat="-17.5678" lon="-149.52721">
        <ele>662.485596</ele>
        <time>2012-05-28T18:26:27Z</time>
      </trkpt>
      <trkpt lat="-17.56794" lon="-149.52718">
        <ele>664.888916</ele>
        <time>2012-05-28T18:26:43Z</time>
      </trkpt>
      <trkpt lat="-17.56806" lon="-149.52713">
        <ele>666.811523</ele>
        <time>2012-05-28T18:27:00Z</time>
      </trkpt>
      <trkpt lat="-17.56821" lon="-149.52711">
        <ele>667.772705</ele>
        <time>2012-05-28T18:27:17Z</time>
      </trkpt>
      <trkpt lat="-17.56835" lon="-149.5271">
        <ele>670.17627</ele>
        <time>2012-05-28T18:27:38Z</time>
      </trkpt>
      <trkpt lat="-17.56839" lon="-149.52703">
        <ele>672.57959</ele>
        <time>2012-05-28T18:27:51Z</time>
      </trkpt>
      <trkpt lat="-17.56847" lon="-149.527">
        <ele>673.060303</ele>
        <time>2012-05-28T18:28:06Z</time>
      </trkpt>
      <trkpt lat="-17.56852" lon="-149.52701">
        <ele>673.060303</ele>
        <time>2012-05-28T18:28:41Z</time>
      </trkpt>
      <trkpt lat="-17.56864" lon="-149.52704">
        <ele>674.98291</ele>
        <time>2012-05-28T18:28:56Z</time>
      </trkpt>
      <trkpt lat="-17.56865" lon="-149.52705">
        <ele>674.98291</ele>
        <time>2012-05-28T18:28:57Z</time>
      </trkpt>
      <trkpt lat="-17.56879" lon="-149.52708">
        <ele>676.424805</ele>
        <time>2012-05-28T18:29:13Z</time>
      </trkpt>
      <trkpt lat="-17.56893" lon="-149.52696">
        <ele>679.308594</ele>
        <time>2012-05-28T18:29:31Z</time>
      </trkpt>
      <trkpt lat="-17.569" lon="-149.52686">
        <ele>680.27002</ele>
        <time>2012-05-28T18:29:48Z</time>
      </trkpt>
      <trkpt lat="-17.5691" lon="-149.52672">
        <ele>682.67334</ele>
        <time>2012-05-28T18:30:05Z</time>
      </trkpt>
      <trkpt lat="-17.56918" lon="-149.52661">
        <ele>684.596191</ele>
        <time>2012-05-28T18:30:20Z</time>
      </trkpt>
      <trkpt lat="-17.56927" lon="-149.52648">
        <ele>687.47998</ele>
        <time>2012-05-28T18:30:34Z</time>
      </trkpt>
      <trkpt lat="-17.56932" lon="-149.52638">
        <ele>687.960693</ele>
        <time>2012-05-28T18:30:48Z</time>
      </trkpt>
      <trkpt lat="-17.56937" lon="-149.52626">
        <ele>690.364014</ele>
        <time>2012-05-28T18:31:02Z</time>
      </trkpt>
      <trkpt lat="-17.56947" lon="-149.52609">
        <ele>691.805908</ele>
        <time>2012-05-28T18:31:21Z</time>
      </trkpt>
      <trkpt lat="-17.56957" lon="-149.52594">
        <ele>692.767334</ele>
        <time>2012-05-28T18:31:36Z</time>
      </trkpt>
      <trkpt lat="-17.56965" lon="-149.52587">
        <ele>696.131836</ele>
        <time>2012-05-28T18:31:48Z</time>
      </trkpt>
      <trkpt lat="-17.56976" lon="-149.52581">
        <ele>697.57373</ele>
        <time>2012-05-28T18:32:02Z</time>
      </trkpt>
      <trkpt lat="-17.56985" lon="-149.52575">
        <ele>700.938477</ele>
        <time>2012-05-28T18:32:14Z</time>
      </trkpt>
      <trkpt lat="-17.56999" lon="-149.52567">
        <ele>702.861084</ele>
        <time>2012-05-28T18:32:33Z</time>
      </trkpt>
      <trkpt lat="-17.57011" lon="-149.52563">
        <ele>703.82251</ele>
        <time>2012-05-28T18:32:46Z</time>
      </trkpt>
      <trkpt lat="-17.57024" lon="-149.52558">
        <ele>705.264404</ele>
        <time>2012-05-28T18:33:01Z</time>
      </trkpt>
      <trkpt lat="-17.5703" lon="-149.52559">
        <ele>706.706299</ele>
        <time>2012-05-28T18:33:12Z</time>
      </trkpt>
      <trkpt lat="-17.57032" lon="-149.52571">
        <ele>709.590332</ele>
        <time>2012-05-28T18:33:24Z</time>
      </trkpt>
      <trkpt lat="-17.5703" lon="-149.52578">
        <ele>710.551514</ele>
        <time>2012-05-28T18:33:29Z</time>
      </trkpt>
      <trkpt lat="-17.57024" lon="-149.52589">
        <ele>712.954834</ele>
        <time>2012-05-28T18:33:39Z</time>
      </trkpt>
      <trkpt lat="-17.57023" lon="-149.52592">
        <ele>713.916016</ele>
        <time>2012-05-28T18:33:43Z</time>
      </trkpt>
      <trkpt lat="-17.57013" lon="-149.52606">
        <ele>715.838867</ele>
        <time>2012-05-28T18:34:02Z</time>
      </trkpt>
      <trkpt lat="-17.57008" lon="-149.52616">
        <ele>718.7229</ele>
        <time>2012-05-28T18:34:15Z</time>
      </trkpt>
      <trkpt lat="-17.5701" lon="-149.52625">
        <ele>720.645508</ele>
        <time>2012-05-28T18:34:32Z</time>
      </trkpt>
      <trkpt lat="-17.5702" lon="-149.52635">
        <ele>721.606689</ele>
        <time>2012-05-28T18:34:50Z</time>
      </trkpt>
      <trkpt lat="-17.57027" lon="-149.52645">
        <ele>724.490723</ele>
        <time>2012-05-28T18:35:05Z</time>
      </trkpt>
      <trkpt lat="-17.57031" lon="-149.52649">
        <ele>725.932617</ele>
        <time>2012-05-28T18:35:21Z</time>
      </trkpt>
      <trkpt lat="-17.57033" lon="-149.52644">
        <ele>729.297119</ele>
        <time>2012-05-28T18:35:32Z</time>
      </trkpt>
      <trkpt lat="-17.57034" lon="-149.52643">
        <ele>728.81665</ele>
        <time>2012-05-28T18:35:33Z</time>
      </trkpt>
      <trkpt lat="-17.57037" lon="-149.52632">
        <ele>732.181396</ele>
        <time>2012-05-28T18:35:48Z</time>
      </trkpt>
      <trkpt lat="-17.57039" lon="-149.52629">
        <ele>734.104004</ele>
        <time>2012-05-28T18:35:58Z</time>
      </trkpt>
      <trkpt lat="-17.57042" lon="-149.52625">
        <ele>736.987793</ele>
        <time>2012-05-28T18:36:11Z</time>
      </trkpt>
      <trkpt lat="-17.57054" lon="-149.52621">
        <ele>740.352539</ele>
        <time>2012-05-28T18:36:27Z</time>
      </trkpt>
      <trkpt lat="-17.57064" lon="-149.52613">
        <ele>743.236328</ele>
        <time>2012-05-28T18:36:46Z</time>
      </trkpt>
      <trkpt lat="-17.57075" lon="-149.52604">
        <ele>744.197754</ele>
        <time>2012-05-28T18:37:05Z</time>
      </trkpt>
      <trkpt lat="-17.57076" lon="-149.52602">
        <ele>745.158936</ele>
        <time>2012-05-28T18:37:07Z</time>
      </trkpt>
      <trkpt lat="-17.57086" lon="-149.52585">
        <ele>742.755859</ele>
        <time>2012-05-28T18:37:25Z</time>
      </trkpt>
      <trkpt lat="-17.57094" lon="-149.52569">
        <ele>742.755859</ele>
        <time>2012-05-28T18:37:41Z</time>
      </trkpt>
      <trkpt lat="-17.57103" lon="-149.52555">
        <ele>745.158936</ele>
        <time>2012-05-28T18:37:56Z</time>
      </trkpt>
      <trkpt lat="-17.57114" lon="-149.52537">
        <ele>747.081543</ele>
        <time>2012-05-28T18:38:13Z</time>
      </trkpt>
      <trkpt lat="-17.57118" lon="-149.52526">
        <ele>750.446533</ele>
        <time>2012-05-28T18:38:24Z</time>
      </trkpt>
      <trkpt lat="-17.57121" lon="-149.52512">
        <ele>753.330322</ele>
        <time>2012-05-28T18:38:40Z</time>
      </trkpt>
      <trkpt lat="-17.57123" lon="-149.52503">
        <ele>755.733643</ele>
        <time>2012-05-28T18:38:57Z</time>
      </trkpt>
      <trkpt lat="-17.57123" lon="-149.52494">
        <ele>758.617432</ele>
        <time>2012-05-28T18:39:17Z</time>
      </trkpt>
      <trkpt lat="-17.57124" lon="-149.52491">
        <ele>760.059326</ele>
        <time>2012-05-28T18:39:24Z</time>
      </trkpt>
      <trkpt lat="-17.57132" lon="-149.52486">
        <ele>761.020752</ele>
        <time>2012-05-28T18:39:41Z</time>
      </trkpt>
      <trkpt lat="-17.57134" lon="-149.52481">
        <ele>760.059326</ele>
        <time>2012-05-28T18:40:04Z</time>
      </trkpt>
      <trkpt lat="-17.57144" lon="-149.52475">
        <ele>759.578857</ele>
        <time>2012-05-28T18:40:19Z</time>
      </trkpt>
      <trkpt lat="-17.57154" lon="-149.52469">
        <ele>761.982178</ele>
        <time>2012-05-28T18:40:34Z</time>
      </trkpt>
      <trkpt lat="-17.57163" lon="-149.52466">
        <ele>765.346924</ele>
        <time>2012-05-28T18:40:48Z</time>
      </trkpt>
      <trkpt lat="-17.57173" lon="-149.52461">
        <ele>767.269531</ele>
        <time>2012-05-28T18:41:08Z</time>
      </trkpt>
      <trkpt lat="-17.57178" lon="-149.52461">
        <ele>769.672852</ele>
        <time>2012-05-28T18:41:25Z</time>
      </trkpt>
      <trkpt lat="-17.57182" lon="-149.5246">
        <ele>773.037354</ele>
        <time>2012-05-28T18:41:52Z</time>
      </trkpt>
      <trkpt lat="-17.57183" lon="-149.52459">
        <ele>773.037354</ele>
        <time>2012-05-28T18:41:53Z</time>
      </trkpt>
      <trkpt lat="-17.57187" lon="-149.52454">
        <ele>776.401855</ele>
        <time>2012-05-28T18:42:08Z</time>
      </trkpt>
      <trkpt lat="-17.57192" lon="-149.52453">
        <ele>779.285645</ele>
        <time>2012-05-28T18:42:18Z</time>
      </trkpt>
      <trkpt lat="-17.57196" lon="-149.52451">
        <ele>782.650635</ele>
        <time>2012-05-28T18:42:28Z</time>
      </trkpt>
      <trkpt lat="-17.57197" lon="-149.5245">
        <ele>783.611816</ele>
        <time>2012-05-28T18:42:30Z</time>
      </trkpt>
      <trkpt lat="-17.57199" lon="-149.52448">
        <ele>784.573242</ele>
        <time>2012-05-28T18:42:34Z</time>
      </trkpt>
      <trkpt lat="-17.57205" lon="-149.52445">
        <ele>787.937744</ele>
        <time>2012-05-28T18:42:47Z</time>
      </trkpt>
      <trkpt lat="-17.57206" lon="-149.52445">
        <ele>788.418457</ele>
        <time>2012-05-28T18:42:48Z</time>
      </trkpt>
      <trkpt lat="-17.57211" lon="-149.52443">
        <ele>787.937744</ele>
        <time>2012-05-28T18:43:03Z</time>
      </trkpt>
      <trkpt lat="-17.57223" lon="-149.52436">
        <ele>790.821533</ele>
        <time>2012-05-28T18:43:20Z</time>
      </trkpt>
      <trkpt lat="-17.5723" lon="-149.52433">
        <ele>794.186279</ele>
        <time>2012-05-28T18:43:34Z</time>
      </trkpt>
      <trkpt lat="-17.57235" lon="-149.52432">
        <ele>796.109131</ele>
        <time>2012-05-28T18:43:44Z</time>
      </trkpt>
      <trkpt lat="-17.57236" lon="-149.52432">
        <ele>797.070312</ele>
        <time>2012-05-28T18:43:46Z</time>
      </trkpt>
      <trkpt lat="-17.57245" lon="-149.52421">
        <ele>798.99292</ele>
        <time>2012-05-28T18:44:04Z</time>
      </trkpt>
      <trkpt lat="-17.57256" lon="-149.52411">
        <ele>798.99292</ele>
        <time>2012-05-28T18:44:19Z</time>
      </trkpt>
      <trkpt lat="-17.57261" lon="-149.52405">
        <ele>802.357422</ele>
        <time>2012-05-28T18:44:27Z</time>
      </trkpt>
      <trkpt lat="-17.57262" lon="-149.52404">
        <ele>801.876953</ele>
        <time>2012-05-28T18:44:28Z</time>
      </trkpt>
      <trkpt lat="-17.57278" lon="-149.52386">
        <ele>804.760742</ele>
        <time>2012-05-28T18:44:49Z</time>
      </trkpt>
      <trkpt lat="-17.57279" lon="-149.52386">
        <ele>804.760742</ele>
        <time>2012-05-28T18:44:50Z</time>
      </trkpt>
      <trkpt lat="-17.57285" lon="-149.52381">
        <ele>808.125488</ele>
        <time>2012-05-28T18:45:01Z</time>
      </trkpt>
      <trkpt lat="-17.57289" lon="-149.52377">
        <ele>811.970703</ele>
        <time>2012-05-28T18:45:09Z</time>
      </trkpt>
      <trkpt lat="-17.57289" lon="-149.52376">
        <ele>811.970703</ele>
        <time>2012-05-28T18:45:10Z</time>
      </trkpt>
      <trkpt lat="-17.5729" lon="-149.52375">
        <ele>812.932129</ele>
        <time>2012-05-28T18:45:12Z</time>
      </trkpt>
      <trkpt lat="-17.57293" lon="-149.52371">
        <ele>814.374023</ele>
        <time>2012-05-28T18:45:29Z</time>
      </trkpt>
      <trkpt lat="-17.57295" lon="-149.52368">
        <ele>813.893311</ele>
        <time>2012-05-28T18:45:56Z</time>
      </trkpt>
      <trkpt lat="-17.57298" lon="-149.52357">
        <ele>817.258057</ele>
        <time>2012-05-28T18:46:12Z</time>
      </trkpt>
      <trkpt lat="-17.57298" lon="-149.52356">
        <ele>817.738525</ele>
        <time>2012-05-28T18:46:14Z</time>
      </trkpt>
      <trkpt lat="-17.57307" lon="-149.52349">
        <ele>821.103271</ele>
        <time>2012-05-28T18:46:30Z</time>
      </trkpt>
      <trkpt lat="-17.57321" lon="-149.5234">
        <ele>823.987061</ele>
        <time>2012-05-28T18:46:47Z</time>
      </trkpt>
      <trkpt lat="-17.57331" lon="-149.52336">
        <ele>827.351807</ele>
        <time>2012-05-28T18:47:02Z</time>
      </trkpt>
      <trkpt lat="-17.57343" lon="-149.52329">
        <ele>826.390381</ele>
        <time>2012-05-28T18:47:19Z</time>
      </trkpt>
      <trkpt lat="-17.57355" lon="-149.52323">
        <ele>829.274414</ele>
        <time>2012-05-28T18:47:31Z</time>
      </trkpt>
      <trkpt lat="-17.57363" lon="-149.5232">
        <ele>831.197266</ele>
        <time>2012-05-28T18:47:43Z</time>
      </trkpt>
      <trkpt lat="-17.57367" lon="-149.52319">
        <ele>833.119629</ele>
        <time>2012-05-28T18:47:52Z</time>
      </trkpt>
      <trkpt lat="-17.57371" lon="-149.52317">
        <ele>835.04248</ele>
        <time>2012-05-28T18:48:01Z</time>
      </trkpt>
      <trkpt lat="-17.57374" lon="-149.52318">
        <ele>836.003662</ele>
        <time>2012-05-28T18:48:16Z</time>
      </trkpt>
      <trkpt lat="-17.57376" lon="-149.52314">
        <ele>839.368164</ele>
        <time>2012-05-28T18:48:38Z</time>
      </trkpt>
      <trkpt lat="-17.57382" lon="-149.5231">
        <ele>841.771484</ele>
        <time>2012-05-28T18:48:54Z</time>
      </trkpt>
      <trkpt lat="-17.57383" lon="-149.52309">
        <ele>842.73291</ele>
        <time>2012-05-28T18:48:56Z</time>
      </trkpt>
      <trkpt lat="-17.57389" lon="-149.52304">
        <ele>845.616943</ele>
        <time>2012-05-28T18:49:10Z</time>
      </trkpt>
      <trkpt lat="-17.57396" lon="-149.52302">
        <ele>848.981445</ele>
        <time>2012-05-28T18:49:22Z</time>
      </trkpt>
      <trkpt lat="-17.57408" lon="-149.52302">
        <ele>851.865479</ele>
        <time>2012-05-28T18:49:39Z</time>
      </trkpt>
      <trkpt lat="-17.57418" lon="-149.52307">
        <ele>855.22998</ele>
        <time>2012-05-28T18:49:55Z</time>
      </trkpt>
      <trkpt lat="-17.57422" lon="-149.523">
        <ele>856.671875</ele>
        <time>2012-05-28T18:50:11Z</time>
      </trkpt>
      <trkpt lat="-17.57424" lon="-149.52293">
        <ele>856.671875</ele>
        <time>2012-05-28T18:50:28Z</time>
      </trkpt>
      <trkpt lat="-17.57425" lon="-149.52289">
        <ele>854.749268</ele>
        <time>2012-05-28T18:50:44Z</time>
      </trkpt>
      <trkpt lat="-17.57427" lon="-149.52287">
        <ele>855.710693</ele>
        <time>2012-05-28T18:51:25Z</time>
      </trkpt>
      <trkpt lat="-17.57426" lon="-149.52286">
        <ele>855.22998</ele>
        <time>2012-05-28T18:51:58Z</time>
      </trkpt>
      <trkpt lat="-17.57427" lon="-149.52287">
        <ele>854.749268</ele>
        <time>2012-05-28T18:52:41Z</time>
      </trkpt>
      <trkpt lat="-17.57425" lon="-149.52287">
        <ele>855.710693</ele>
        <time>2012-05-28T18:53:35Z</time>
      </trkpt>
      <trkpt lat="-17.57426" lon="-149.52285">
        <ele>855.22998</ele>
        <time>2012-05-28T18:53:37Z</time>
      </trkpt>
      <trkpt lat="-17.57439" lon="-149.52264">
        <ele>856.191162</ele>
        <time>2012-05-28T18:53:59Z</time>
      </trkpt>
      <trkpt lat="-17.57452" lon="-149.52247">
        <ele>858.114014</ele>
        <time>2012-05-28T18:54:20Z</time>
      </trkpt>
      <trkpt lat="-17.57458" lon="-149.52236">
        <ele>858.594482</ele>
        <time>2012-05-28T18:54:36Z</time>
      </trkpt>
      <trkpt lat="-17.57458" lon="-149.52235">
        <ele>858.594482</ele>
        <time>2012-05-28T18:54:40Z</time>
      </trkpt>
      <trkpt lat="-17.57462" lon="-149.52216">
        <ele>860.517334</ele>
        <time>2012-05-28T18:54:56Z</time>
      </trkpt>
      <trkpt lat="-17.5747" lon="-149.52204">
        <ele>862.920654</ele>
        <time>2012-05-28T18:55:10Z</time>
      </trkpt>
      <trkpt lat="-17.57477" lon="-149.52185">
        <ele>864.362549</ele>
        <time>2012-05-28T18:55:28Z</time>
      </trkpt>
      <trkpt lat="-17.57477" lon="-149.52175">
        <ele>865.804688</ele>
        <time>2012-05-28T18:55:39Z</time>
      </trkpt>
      <trkpt lat="-17.57475" lon="-149.52167">
        <ele>867.727051</ele>
        <time>2012-05-28T18:55:48Z</time>
      </trkpt>
      <trkpt lat="-17.57479" lon="-149.52155">
        <ele>868.207764</ele>
        <time>2012-05-28T18:56:01Z</time>
      </trkpt>
      <trkpt lat="-17.57486" lon="-149.52144">
        <ele>871.572266</ele>
        <time>2012-05-28T18:56:15Z</time>
      </trkpt>
      <trkpt lat="-17.57492" lon="-149.52127">
        <ele>873.014404</ele>
        <time>2012-05-28T18:56:32Z</time>
      </trkpt>
      <trkpt lat="-17.57496" lon="-149.52116">
        <ele>876.37915</ele>
        <time>2012-05-28T18:56:47Z</time>
      </trkpt>
      <trkpt lat="-17.575" lon="-149.52101">
        <ele>877.821045</ele>
        <time>2012-05-28T18:57:05Z</time>
      </trkpt>
      <trkpt lat="-17.57504" lon="-149.52101">
        <ele>879.262939</ele>
        <time>2012-05-28T18:57:10Z</time>
      </trkpt>
      <trkpt lat="-17.57508" lon="-149.52101">
        <ele>879.262939</ele>
        <time>2012-05-28T18:57:16Z</time>
      </trkpt>
      <trkpt lat="-17.5751" lon="-149.521">
        <ele>880.224365</ele>
        <time>2012-05-28T18:57:18Z</time>
      </trkpt>
      <trkpt lat="-17.57518" lon="-149.52089">
        <ele>882.627686</ele>
        <time>2012-05-28T18:57:36Z</time>
      </trkpt>
      <trkpt lat="-17.57529" lon="-149.52079">
        <ele>882.627686</ele>
        <time>2012-05-28T18:57:55Z</time>
      </trkpt>
      <trkpt lat="-17.57532" lon="-149.52077">
        <ele>883.588867</ele>
        <time>2012-05-28T18:57:59Z</time>
      </trkpt>
      <trkpt lat="-17.57544" lon="-149.52072">
        <ele>885.511475</ele>
        <time>2012-05-28T18:58:17Z</time>
      </trkpt>
      <trkpt lat="-17.57555" lon="-149.52061">
        <ele>887.434082</ele>
        <time>2012-05-28T18:58:37Z</time>
      </trkpt>
      <trkpt lat="-17.57558" lon="-149.52059">
        <ele>889.356689</ele>
        <time>2012-05-28T18:58:44Z</time>
      </trkpt>
      <trkpt lat="-17.57561" lon="-149.52057">
        <ele>890.318115</ele>
        <time>2012-05-28T18:58:50Z</time>
      </trkpt>
      <trkpt lat="-17.57565" lon="-149.52054">
        <ele>890.798584</ele>
        <time>2012-05-28T18:58:56Z</time>
      </trkpt>
      <trkpt lat="-17.57575" lon="-149.52045">
        <ele>893.682861</ele>
        <time>2012-05-28T18:59:12Z</time>
      </trkpt>
      <trkpt lat="-17.57584" lon="-149.52039">
        <ele>895.124756</ele>
        <time>2012-05-28T18:59:27Z</time>
      </trkpt>
      <trkpt lat="-17.57591" lon="-149.52032">
        <ele>897.528076</ele>
        <time>2012-05-28T18:59:40Z</time>
      </trkpt>
      <trkpt lat="-17.57599" lon="-149.52024">
        <ele>898.008789</ele>
        <time>2012-05-28T18:59:55Z</time>
      </trkpt>
      <trkpt lat="-17.57608" lon="-149.52015">
        <ele>901.373291</ele>
        <time>2012-05-28T19:00:10Z</time>
      </trkpt>
      <trkpt lat="-17.57617" lon="-149.52003">
        <ele>901.854004</ele>
        <time>2012-05-28T19:00:30Z</time>
      </trkpt>
      <trkpt lat="-17.57625" lon="-149.51994">
        <ele>904.737793</ele>
        <time>2012-05-28T19:00:44Z</time>
      </trkpt>
      <trkpt lat="-17.57632" lon="-149.51982">
        <ele>907.141113</ele>
        <time>2012-05-28T19:01:03Z</time>
      </trkpt>
      <trkpt lat="-17.57641" lon="-149.51971">
        <ele>909.544678</ele>
        <time>2012-05-28T19:01:20Z</time>
      </trkpt>
      <trkpt lat="-17.57642" lon="-149.51967">
        <ele>909.544678</ele>
        <time>2012-05-28T19:01:25Z</time>
      </trkpt>
      <trkpt lat="-17.5765" lon="-149.51955">
        <ele>910.025146</ele>
        <time>2012-05-28T19:01:39Z</time>
      </trkpt>
      <trkpt lat="-17.57668" lon="-149.51942">
        <ele>908.102783</ele>
        <time>2012-05-28T19:02:02Z</time>
      </trkpt>
      <trkpt lat="-17.57679" lon="-149.51923">
        <ele>909.544678</ele>
        <time>2012-05-28T19:02:21Z</time>
      </trkpt>
      <trkpt lat="-17.57687" lon="-149.51913">
        <ele>911.947998</ele>
        <time>2012-05-28T19:02:36Z</time>
      </trkpt>
      <trkpt lat="-17.57697" lon="-149.51905">
        <ele>914.351074</ele>
        <time>2012-05-28T19:02:53Z</time>
      </trkpt>
      <trkpt lat="-17.57702" lon="-149.51898">
        <ele>916.273682</ele>
        <time>2012-05-28T19:03:08Z</time>
      </trkpt>
      <trkpt lat="-17.57714" lon="-149.5189">
        <ele>919.157715</ele>
        <time>2012-05-28T19:03:23Z</time>
      </trkpt>
      <trkpt lat="-17.57723" lon="-149.51889">
        <ele>920.118896</ele>
        <time>2012-05-28T19:03:35Z</time>
      </trkpt>
      <trkpt lat="-17.5773" lon="-149.51883">
        <ele>922.041504</ele>
        <time>2012-05-28T19:03:48Z</time>
      </trkpt>
      <trkpt lat="-17.57731" lon="-149.51872">
        <ele>923.483643</ele>
        <time>2012-05-28T19:04:01Z</time>
      </trkpt>
      <trkpt lat="-17.57729" lon="-149.51862">
        <ele>925.40625</ele>
        <time>2012-05-28T19:04:17Z</time>
      </trkpt>
      <trkpt lat="-17.57726" lon="-149.51857">
        <ele>924.925781</ele>
        <time>2012-05-28T19:04:29Z</time>
      </trkpt>
      <trkpt lat="-17.57721" lon="-149.51852">
        <ele>924.925781</ele>
        <time>2012-05-28T19:04:47Z</time>
      </trkpt>
      <trkpt lat="-17.57725" lon="-149.51854">
        <ele>926.367676</ele>
        <time>2012-05-28T19:05:05Z</time>
      </trkpt>
      <trkpt lat="-17.57729" lon="-149.51852">
        <ele>927.329102</ele>
        <time>2012-05-28T19:05:18Z</time>
      </trkpt>
      <trkpt lat="-17.57735" lon="-149.51852">
        <ele>924.925781</ele>
        <time>2012-05-28T19:05:49Z</time>
      </trkpt>
      <trkpt lat="-17.57733" lon="-149.51849">
        <ele>927.80957</ele>
        <time>2012-05-28T19:08:04Z</time>
      </trkpt>
      <trkpt lat="-17.57733" lon="-149.51851">
        <ele>927.329102</ele>
        <time>2012-05-28T19:08:25Z</time>
      </trkpt>
      <trkpt lat="-17.57729" lon="-149.51852">
        <ele>928.290283</ele>
        <time>2012-05-28T19:08:43Z</time>
      </trkpt>
      <trkpt lat="-17.57727" lon="-149.51843">
        <ele>929.251465</ele>
        <time>2012-05-28T19:09:09Z</time>
      </trkpt>
      <trkpt lat="-17.57733" lon="-149.51834">
        <ele>931.654785</ele>
        <time>2012-05-28T19:09:24Z</time>
      </trkpt>
      <trkpt lat="-17.57752" lon="-149.51832">
        <ele>933.577393</ele>
        <time>2012-05-28T19:09:40Z</time>
      </trkpt>
      <trkpt lat="-17.57763" lon="-149.51832">
        <ele>935.019531</ele>
        <time>2012-05-28T19:09:55Z</time>
      </trkpt>
      <trkpt lat="-17.57764" lon="-149.5183">
        <ele>936.461426</ele>
        <time>2012-05-28T19:10:00Z</time>
      </trkpt>
      <trkpt lat="-17.57765" lon="-149.51823">
        <ele>939.345215</ele>
        <time>2012-05-28T19:10:10Z</time>
      </trkpt>
      <trkpt lat="-17.57766" lon="-149.51816">
        <ele>940.306885</ele>
        <time>2012-05-28T19:10:18Z</time>
      </trkpt>
      <trkpt lat="-17.57773" lon="-149.51809">
        <ele>940.306885</ele>
        <time>2012-05-28T19:10:27Z</time>
      </trkpt>
      <trkpt lat="-17.57781" lon="-149.51804">
        <ele>940.306885</ele>
        <time>2012-05-28T19:10:45Z</time>
      </trkpt>
      <trkpt lat="-17.57786" lon="-149.51804">
        <ele>941.268066</ele>
        <time>2012-05-28T19:11:02Z</time>
      </trkpt>
      <trkpt lat="-17.57791" lon="-149.51805">
        <ele>941.268066</ele>
        <time>2012-05-28T19:11:06Z</time>
      </trkpt>
      <trkpt lat="-17.57798" lon="-149.51807">
        <ele>942.229492</ele>
        <time>2012-05-28T19:11:12Z</time>
      </trkpt>
      <trkpt lat="-17.57814" lon="-149.51808">
        <ele>942.710205</ele>
        <time>2012-05-28T19:11:25Z</time>
      </trkpt>
      <trkpt lat="-17.57832" lon="-149.51807">
        <ele>942.710205</ele>
        <time>2012-05-28T19:11:43Z</time>
      </trkpt>
      <trkpt lat="-17.57848" lon="-149.51806">
        <ele>944.1521</ele>
        <time>2012-05-28T19:11:58Z</time>
      </trkpt>
      <trkpt lat="-17.57857" lon="-149.51806">
        <ele>945.113281</ele>
        <time>2012-05-28T19:12:07Z</time>
      </trkpt>
      <trkpt lat="-17.57868" lon="-149.518">
        <ele>946.074707</ele>
        <time>2012-05-28T19:12:21Z</time>
      </trkpt>
      <trkpt lat="-17.57877" lon="-149.51789">
        <ele>947.516602</ele>
        <time>2012-05-28T19:12:35Z</time>
      </trkpt>
      <trkpt lat="-17.57878" lon="-149.51781">
        <ele>948.958496</ele>
        <time>2012-05-28T19:12:48Z</time>
      </trkpt>
      <trkpt lat="-17.57882" lon="-149.51779">
        <ele>949.439209</ele>
        <time>2012-05-28T19:13:03Z</time>
      </trkpt>
      <trkpt lat="-17.57882" lon="-149.51775">
        <ele>950.400635</ele>
        <time>2012-05-28T19:13:19Z</time>
      </trkpt>
      <trkpt lat="-17.5788" lon="-149.51772">
        <ele>951.361816</ele>
        <time>2012-05-28T19:13:22Z</time>
      </trkpt>
      <trkpt lat="-17.57879" lon="-149.51761">
        <ele>952.322998</ele>
        <time>2012-05-28T19:13:38Z</time>
      </trkpt>
      <trkpt lat="-17.57879" lon="-149.51754">
        <ele>952.803711</ele>
        <time>2012-05-28T19:13:47Z</time>
      </trkpt>
      <trkpt lat="-17.57884" lon="-149.51744">
        <ele>955.207031</ele>
        <time>2012-05-28T19:14:03Z</time>
      </trkpt>
      <trkpt lat="-17.57884" lon="-149.51733">
        <ele>957.129883</ele>
        <time>2012-05-28T19:14:20Z</time>
      </trkpt>
      <trkpt lat="-17.5788" lon="-149.51721">
        <ele>959.05249</ele>
        <time>2012-05-28T19:14:34Z</time>
      </trkpt>
      <trkpt lat="-17.57878" lon="-149.51709">
        <ele>959.533203</ele>
        <time>2012-05-28T19:14:48Z</time>
      </trkpt>
      <trkpt lat="-17.57883" lon="-149.51698">
        <ele>962.416992</ele>
        <time>2012-05-28T19:15:06Z</time>
      </trkpt>
      <trkpt lat="-17.57889" lon="-149.517">
        <ele>962.416992</ele>
        <time>2012-05-28T19:15:12Z</time>
      </trkpt>
      <trkpt lat="-17.57899" lon="-149.51701">
        <ele>963.378418</ele>
        <time>2012-05-28T19:15:23Z</time>
      </trkpt>
      <trkpt lat="-17.57909" lon="-149.51701">
        <ele>966.262207</ele>
        <time>2012-05-28T19:15:34Z</time>
      </trkpt>
      <trkpt lat="-17.5792" lon="-149.51702">
        <ele>968.665527</ele>
        <time>2012-05-28T19:15:51Z</time>
      </trkpt>
      <trkpt lat="-17.57927" lon="-149.51699">
        <ele>970.588135</ele>
        <time>2012-05-28T19:16:07Z</time>
      </trkpt>
      <trkpt lat="-17.57929" lon="-149.51692">
        <ele>971.068848</ele>
        <time>2012-05-28T19:16:22Z</time>
      </trkpt>
      <trkpt lat="-17.57932" lon="-149.51683">
        <ele>971.549316</ele>
        <time>2012-05-28T19:16:39Z</time>
      </trkpt>
      <trkpt lat="-17.57931" lon="-149.51681">
        <ele>971.549316</ele>
        <time>2012-05-28T19:16:49Z</time>
      </trkpt>
      <trkpt lat="-17.57937" lon="-149.51682">
        <ele>971.549316</ele>
        <time>2012-05-28T19:17:02Z</time>
      </trkpt>
      <trkpt lat="-17.5794" lon="-149.51674">
        <ele>972.991699</ele>
        <time>2012-05-28T19:17:14Z</time>
      </trkpt>
      <trkpt lat="-17.57944" lon="-149.51676">
        <ele>972.991699</ele>
        <time>2012-05-28T19:17:28Z</time>
      </trkpt>
      <trkpt lat="-17.57945" lon="-149.51678">
        <ele>972.991699</ele>
        <time>2012-05-28T19:17:30Z</time>
      </trkpt>
      <trkpt lat="-17.57952" lon="-149.51681">
        <ele>972.991699</ele>
        <time>2012-05-28T19:17:37Z</time>
      </trkpt>
      <trkpt lat="-17.57974" lon="-149.51687">
        <ele>972.991699</ele>
        <time>2012-05-28T19:17:52Z</time>
      </trkpt>
      <trkpt lat="-17.57975" lon="-149.51687">
        <ele>972.991699</ele>
        <time>2012-05-28T19:17:53Z</time>
      </trkpt>
      <trkpt lat="-17.57987" lon="-149.51689">
        <ele>972.510986</ele>
        <time>2012-05-28T19:18:07Z</time>
      </trkpt>
      <trkpt lat="-17.57999" lon="-149.51689">
        <ele>972.991699</ele>
        <time>2012-05-28T19:18:23Z</time>
      </trkpt>
      <trkpt lat="-17.58001" lon="-149.51683">
        <ele>972.510986</ele>
        <time>2012-05-28T19:18:45Z</time>
      </trkpt>
      <trkpt lat="-17.58007" lon="-149.51674">
        <ele>971.068848</ele>
        <time>2012-05-28T19:19:09Z</time>
      </trkpt>
      <trkpt lat="-17.58009" lon="-149.51666">
        <ele>969.14624</ele>
        <time>2012-05-28T19:19:24Z</time>
      </trkpt>
      <trkpt lat="-17.58008" lon="-149.51657">
        <ele>968.665527</ele>
        <time>2012-05-28T19:19:38Z</time>
      </trkpt>
      <trkpt lat="-17.58009" lon="-149.51647">
        <ele>970.107422</ele>
        <time>2012-05-28T19:19:51Z</time>
      </trkpt>
      <trkpt lat="-17.5801" lon="-149.51632">
        <ele>970.588135</ele>
        <time>2012-05-28T19:20:08Z</time>
      </trkpt>
      <trkpt lat="-17.58016" lon="-149.51621">
        <ele>972.510986</ele>
        <time>2012-05-28T19:20:26Z</time>
      </trkpt>
      <trkpt lat="-17.58038" lon="-149.5162">
        <ele>973.952881</ele>
        <time>2012-05-28T19:20:45Z</time>
      </trkpt>
      <trkpt lat="-17.58047" lon="-149.5162">
        <ele>974.433594</ele>
        <time>2012-05-28T19:20:59Z</time>
      </trkpt>
      <trkpt lat="-17.58063" lon="-149.51627">
        <ele>973.952881</ele>
        <time>2012-05-28T19:21:16Z</time>
      </trkpt>
      <trkpt lat="-17.58066" lon="-149.51627">
        <ele>974.433594</ele>
        <time>2012-05-28T19:21:18Z</time>
      </trkpt>
      <trkpt lat="-17.58076" lon="-149.51624">
        <ele>975.394775</ele>
        <time>2012-05-28T19:21:34Z</time>
      </trkpt>
      <trkpt lat="-17.58082" lon="-149.51615">
        <ele>975.394775</ele>
        <time>2012-05-28T19:21:47Z</time>
      </trkpt>
      <trkpt lat="-17.58085" lon="-149.51605">
        <ele>973.952881</ele>
        <time>2012-05-28T19:22:00Z</time>
      </trkpt>
      <trkpt lat="-17.58082" lon="-149.51588">
        <ele>975.394775</ele>
        <time>2012-05-28T19:22:17Z</time>
      </trkpt>
      <trkpt lat="-17.58082" lon="-149.51583">
        <ele>975.875488</ele>
        <time>2012-05-28T19:22:25Z</time>
      </trkpt>
      <trkpt lat="-17.58097" lon="-149.51582">
        <ele>976.356201</ele>
        <time>2012-05-28T19:22:37Z</time>
      </trkpt>
      <trkpt lat="-17.58102" lon="-149.51579">
        <ele>976.836914</ele>
        <time>2012-05-28T19:22:42Z</time>
      </trkpt>
      <trkpt lat="-17.58117" lon="-149.51575">
        <ele>980.201416</ele>
        <time>2012-05-28T19:23:01Z</time>
      </trkpt>
      <trkpt lat="-17.58119" lon="-149.5157">
        <ele>979.720703</ele>
        <time>2012-05-28T19:23:22Z</time>
      </trkpt>
      <trkpt lat="-17.58125" lon="-149.51565">
        <ele>982.604736</ele>
        <time>2012-05-28T19:23:41Z</time>
      </trkpt>
      <trkpt lat="-17.58138" lon="-149.51565">
        <ele>984.527344</ele>
        <time>2012-05-28T19:23:57Z</time>
      </trkpt>
      <trkpt lat="-17.58139" lon="-149.51565">
        <ele>984.527344</ele>
        <time>2012-05-28T19:23:58Z</time>
      </trkpt>
      <trkpt lat="-17.58144" lon="-149.51565">
        <ele>985.008057</ele>
        <time>2012-05-28T19:24:03Z</time>
      </trkpt>
      <trkpt lat="-17.58159" lon="-149.51566">
        <ele>987.891846</ele>
        <time>2012-05-28T19:24:22Z</time>
      </trkpt>
      <trkpt lat="-17.5816" lon="-149.51566">
        <ele>988.372803</ele>
        <time>2012-05-28T19:24:23Z</time>
      </trkpt>
      <trkpt lat="-17.58168" lon="-149.5155">
        <ele>989.333984</ele>
        <time>2012-05-28T19:24:43Z</time>
      </trkpt>
      <trkpt lat="-17.58168" lon="-149.51548">
        <ele>989.333984</ele>
        <time>2012-05-28T19:24:45Z</time>
      </trkpt>
      <trkpt lat="-17.58171" lon="-149.51539">
        <ele>991.256592</ele>
        <time>2012-05-28T19:24:54Z</time>
      </trkpt>
      <trkpt lat="-17.58177" lon="-149.51531">
        <ele>994.140625</ele>
        <time>2012-05-28T19:25:08Z</time>
      </trkpt>
      <trkpt lat="-17.58185" lon="-149.51521">
        <ele>996.543945</ele>
        <time>2012-05-28T19:25:20Z</time>
      </trkpt>
      <trkpt lat="-17.58187" lon="-149.51519">
        <ele>996.543945</ele>
        <time>2012-05-28T19:25:23Z</time>
      </trkpt>
      <trkpt lat="-17.582" lon="-149.51511">
        <ele>997.505127</ele>
        <time>2012-05-28T19:25:41Z</time>
      </trkpt>
      <trkpt lat="-17.58205" lon="-149.51501">
        <ele>998.947021</ele>
        <time>2012-05-28T19:25:58Z</time>
      </trkpt>
      <trkpt lat="-17.58208" lon="-149.5149">
        <ele>999.908447</ele>
        <time>2012-05-28T19:26:13Z</time>
      </trkpt>
      <trkpt lat="-17.58213" lon="-149.51473">
        <ele>1001.831055</ele>
        <time>2012-05-28T19:26:34Z</time>
      </trkpt>
      <trkpt lat="-17.58215" lon="-149.51469">
        <ele>1002.311523</ele>
        <time>2012-05-28T19:26:48Z</time>
      </trkpt>
      <trkpt lat="-17.58215" lon="-149.51469">
        <ele>1001.831055</ele>
        <time>2012-05-28T19:27:14Z</time>
      </trkpt>
      <trkpt lat="-17.58214" lon="-149.51473">
        <ele>1000.869629</ele>
        <time>2012-05-28T19:27:28Z</time>
      </trkpt>
      <trkpt lat="-17.58215" lon="-149.51472">
        <ele>1001.831055</ele>
        <time>2012-05-28T19:27:57Z</time>
      </trkpt>
    </trkseg>
  </trk>
  <trk>
    <name><![CDATA[ACTIVE LOG 038]]></name>
    <trkseg>
      <trkpt lat="-17.58215" lon="-149.51471">
        <ele>996.543945</ele>
        <time>2012-05-28T19:36:48Z</time>
      </trkpt>
      <trkpt lat="-17.58215" lon="-149.51471">
        <ele>994.140625</ele>
        <time>2012-05-28T19:36:50Z</time>
      </trkpt>
    </trkseg>
  </trk>
  <trk>
    <name><![CDATA[ACTIVE LOG 039]]></name>
    <trkseg>
      <trkpt lat="-17.58209" lon="-149.51501">
        <ele>993.659912</ele>
        <time>2012-05-28T19:36:52Z</time>
      </trkpt>
      <trkpt lat="-17.58208" lon="-149.515">
        <ele>997.024414</ele>
        <time>2012-05-28T19:37:01Z</time>
      </trkpt>
      <trkpt lat="-17.58208" lon="-149.515">
        <ele>1000.38916</ele>
        <time>2012-05-28T19:37:09Z</time>
      </trkpt>
      <trkpt lat="-17.58208" lon="-149.515">
        <ele>1000.869629</ele>
        <time>2012-05-28T19:37:14Z</time>
      </trkpt>
      <trkpt lat="-17.58208" lon="-149.515">
        <ele>1005.195801</ele>
        <time>2012-05-28T19:37:36Z</time>
      </trkpt>
      <trkpt lat="-17.58208" lon="-149.515">
        <ele>1004.715088</ele>
        <time>2012-05-28T19:37:37Z</time>
      </trkpt>
      <trkpt lat="-17.58207" lon="-149.51499">
        <ele>1004.715088</ele>
        <time>2012-05-28T19:37:47Z</time>
      </trkpt>
      <trkpt lat="-17.58206" lon="-149.51498">
        <ele>1005.676514</ele>
        <time>2012-05-28T19:38:31Z</time>
      </trkpt>
      <trkpt lat="-17.58206" lon="-149.51499">
        <ele>1005.676514</ele>
        <time>2012-05-28T19:38:40Z</time>
      </trkpt>
      <trkpt lat="-17.58191" lon="-149.51516">
        <ele>1003.753662</ele>
        <time>2012-05-28T19:38:57Z</time>
      </trkpt>
      <trkpt lat="-17.58188" lon="-149.51517">
        <ele>1001.831055</ele>
        <time>2012-05-28T19:39:00Z</time>
      </trkpt>
      <trkpt lat="-17.58185" lon="-149.5152">
        <ele>1001.831055</ele>
        <time>2012-05-28T19:39:03Z</time>
      </trkpt>
      <trkpt lat="-17.5818" lon="-149.5153">
        <ele>998.947021</ele>
        <time>2012-05-28T19:39:13Z</time>
      </trkpt>
      <trkpt lat="-17.58176" lon="-149.51536">
        <ele>997.505127</ele>
        <time>2012-05-28T19:39:21Z</time>
      </trkpt>
      <trkpt lat="-17.5817" lon="-149.51556">
        <ele>996.543945</ele>
        <time>2012-05-28T19:39:38Z</time>
      </trkpt>
      <trkpt lat="-17.58161" lon="-149.51567">
        <ele>995.58252</ele>
        <time>2012-05-28T19:39:53Z</time>
      </trkpt>
      <trkpt lat="-17.58159" lon="-149.51567">
        <ele>992.218018</ele>
        <time>2012-05-28T19:40:04Z</time>
      </trkpt>
      <trkpt lat="-17.58155" lon="-149.51568">
        <ele>992.218018</ele>
        <time>2012-05-28T19:40:12Z</time>
      </trkpt>
      <trkpt lat="-17.58141" lon="-149.5157">
        <ele>990.775879</ele>
        <time>2012-05-28T19:40:27Z</time>
      </trkpt>
      <trkpt lat="-17.58133" lon="-149.5157">
        <ele>989.814697</ele>
        <time>2012-05-28T19:40:40Z</time>
      </trkpt>
      <trkpt lat="-17.58123" lon="-149.51572">
        <ele>987.411133</ele>
        <time>2012-05-28T19:40:59Z</time>
      </trkpt>
      <trkpt lat="-17.58115" lon="-149.51581">
        <ele>985.969238</ele>
        <time>2012-05-28T19:41:13Z</time>
      </trkpt>
      <trkpt lat="-17.58099" lon="-149.51583">
        <ele>982.604736</ele>
        <time>2012-05-28T19:41:29Z</time>
      </trkpt>
      <trkpt lat="-17.58087" lon="-149.51584">
        <ele>981.162842</ele>
        <time>2012-05-28T19:41:39Z</time>
      </trkpt>
      <trkpt lat="-17.58085" lon="-149.51585">
        <ele>981.162842</ele>
        <time>2012-05-28T19:41:41Z</time>
      </trkpt>
      <trkpt lat="-17.58087" lon="-149.51589">
        <ele>981.162842</ele>
        <time>2012-05-28T19:41:46Z</time>
      </trkpt>
      <trkpt lat="-17.58091" lon="-149.51597">
        <ele>980.201416</ele>
        <time>2012-05-28T19:41:59Z</time>
      </trkpt>
      <trkpt lat="-17.58093" lon="-149.51613">
        <ele>980.201416</ele>
        <time>2012-05-28T19:42:13Z</time>
      </trkpt>
      <trkpt lat="-17.58085" lon="-149.51625">
        <ele>980.682129</ele>
        <time>2012-05-28T19:42:24Z</time>
      </trkpt>
      <trkpt lat="-17.58065" lon="-149.5163">
        <ele>980.682129</ele>
        <time>2012-05-28T19:42:41Z</time>
      </trkpt>
      <trkpt lat="-17.58051" lon="-149.51626">
        <ele>980.682129</ele>
        <time>2012-05-28T19:42:55Z</time>
      </trkpt>
      <trkpt lat="-17.58037" lon="-149.51623">
        <ele>979.720703</ele>
        <time>2012-05-28T19:43:09Z</time>
      </trkpt>
      <trkpt lat="-17.58028" lon="-149.51622">
        <ele>979.23999</ele>
        <time>2012-05-28T19:43:18Z</time>
      </trkpt>
      <trkpt lat="-17.58014" lon="-149.51626">
        <ele>978.759521</ele>
        <time>2012-05-28T19:43:35Z</time>
      </trkpt>
      <trkpt lat="-17.58015" lon="-149.5164">
        <ele>978.759521</ele>
        <time>2012-05-28T19:43:50Z</time>
      </trkpt>
      <trkpt lat="-17.58009" lon="-149.51652">
        <ele>976.836914</ele>
        <time>2012-05-28T19:44:03Z</time>
      </trkpt>
      <trkpt lat="-17.58007" lon="-149.51664">
        <ele>977.317627</ele>
        <time>2012-05-28T19:44:17Z</time>
      </trkpt>
      <trkpt lat="-17.58004" lon="-149.5168">
        <ele>978.759521</ele>
        <time>2012-05-28T19:44:33Z</time>
      </trkpt>
      <trkpt lat="-17.57994" lon="-149.51698">
        <ele>980.201416</ele>
        <time>2012-05-28T19:45:07Z</time>
      </trkpt>
      <trkpt lat="-17.57978" lon="-149.51694">
        <ele>978.278809</ele>
        <time>2012-05-28T19:45:22Z</time>
      </trkpt>
      <trkpt lat="-17.57966" lon="-149.51688">
        <ele>978.759521</ele>
        <time>2012-05-28T19:45:35Z</time>
      </trkpt>
      <trkpt lat="-17.57957" lon="-149.51683">
        <ele>979.720703</ele>
        <time>2012-05-28T19:45:46Z</time>
      </trkpt>
      <trkpt lat="-17.57948" lon="-149.51678">
        <ele>980.682129</ele>
        <time>2012-05-28T19:46:00Z</time>
      </trkpt>
      <trkpt lat="-17.57942" lon="-149.51678">
        <ele>980.201416</ele>
        <time>2012-05-28T19:46:08Z</time>
      </trkpt>
      <trkpt lat="-17.57938" lon="-149.51694">
        <ele>980.201416</ele>
        <time>2012-05-28T19:46:23Z</time>
      </trkpt>
      <trkpt lat="-17.57928" lon="-149.51702">
        <ele>978.759521</ele>
        <time>2012-05-28T19:46:40Z</time>
      </trkpt>
      <trkpt lat="-17.57922" lon="-149.51704">
        <ele>977.317627</ele>
        <time>2012-05-28T19:46:49Z</time>
      </trkpt>
      <trkpt lat="-17.57911" lon="-149.51703">
        <ele>974.914307</ele>
        <time>2012-05-28T19:47:03Z</time>
      </trkpt>
      <trkpt lat="-17.57902" lon="-149.51703">
        <ele>972.991699</ele>
        <time>2012-05-28T19:47:18Z</time>
      </trkpt>
      <trkpt lat="-17.57888" lon="-149.51699">
        <ele>972.030273</ele>
        <time>2012-05-28T19:47:31Z</time>
      </trkpt>
      <trkpt lat="-17.57885" lon="-149.51706">
        <ele>970.588135</ele>
        <time>2012-05-28T19:47:46Z</time>
      </trkpt>
      <trkpt lat="-17.57886" lon="-149.51719">
        <ele>967.704102</ele>
        <time>2012-05-28T19:48:01Z</time>
      </trkpt>
      <trkpt lat="-17.57889" lon="-149.51731">
        <ele>966.262207</ele>
        <time>2012-05-28T19:48:15Z</time>
      </trkpt>
      <trkpt lat="-17.57888" lon="-149.51743">
        <ele>964.3396</ele>
        <time>2012-05-28T19:48:31Z</time>
      </trkpt>
      <trkpt lat="-17.57888" lon="-149.51753">
        <ele>963.378418</ele>
        <time>2012-05-28T19:48:43Z</time>
      </trkpt>
      <trkpt lat="-17.57885" lon="-149.51767">
        <ele>961.936523</ele>
        <time>2012-05-28T19:48:58Z</time>
      </trkpt>
      <trkpt lat="-17.57879" lon="-149.51776">
        <ele>959.533203</ele>
        <time>2012-05-28T19:49:16Z</time>
      </trkpt>
      <trkpt lat="-17.57881" lon="-149.51789">
        <ele>959.533203</ele>
        <time>2012-05-28T19:49:38Z</time>
      </trkpt>
      <trkpt lat="-17.57876" lon="-149.51792">
        <ele>958.091309</ele>
        <time>2012-05-28T19:49:55Z</time>
      </trkpt>
      <trkpt lat="-17.57869" lon="-149.51798">
        <ele>957.129883</ele>
        <time>2012-05-28T19:50:06Z</time>
      </trkpt>
      <trkpt lat="-17.57858" lon="-149.51801">
        <ele>956.168457</ele>
        <time>2012-05-28T19:50:24Z</time>
      </trkpt>
      <trkpt lat="-17.57849" lon="-149.51808">
        <ele>955.207031</ele>
        <time>2012-05-28T19:50:42Z</time>
      </trkpt>
      <trkpt lat="-17.57844" lon="-149.51808">
        <ele>955.207031</ele>
        <time>2012-05-28T19:50:52Z</time>
      </trkpt>
      <trkpt lat="-17.57834" lon="-149.51811">
        <ele>954.726318</ele>
        <time>2012-05-28T19:51:02Z</time>
      </trkpt>
      <trkpt lat="-17.57833" lon="-149.51811">
        <ele>953.284424</ele>
        <time>2012-05-28T19:51:03Z</time>
      </trkpt>
      <trkpt lat="-17.57829" lon="-149.51812">
        <ele>954.24585</ele>
        <time>2012-05-28T19:51:07Z</time>
      </trkpt>
      <trkpt lat="-17.57824" lon="-149.51812">
        <ele>955.207031</ele>
        <time>2012-05-28T19:51:11Z</time>
      </trkpt>
      <trkpt lat="-17.57815" lon="-149.51813">
        <ele>954.24585</ele>
        <time>2012-05-28T19:51:17Z</time>
      </trkpt>
      <trkpt lat="-17.57801" lon="-149.51811">
        <ele>953.284424</ele>
        <time>2012-05-28T19:51:31Z</time>
      </trkpt>
      <trkpt lat="-17.57793" lon="-149.51808">
        <ele>951.842529</ele>
        <time>2012-05-28T19:51:41Z</time>
      </trkpt>
      <trkpt lat="-17.57779" lon="-149.51806">
        <ele>952.322998</ele>
        <time>2012-05-28T19:51:58Z</time>
      </trkpt>
      <trkpt lat="-17.57775" lon="-149.51814">
        <ele>951.842529</ele>
        <time>2012-05-28T19:52:08Z</time>
      </trkpt>
      <trkpt lat="-17.57768" lon="-149.51828">
        <ele>949.919922</ele>
        <time>2012-05-28T19:52:24Z</time>
      </trkpt>
      <trkpt lat="-17.57764" lon="-149.51831">
        <ele>948.477783</ele>
        <time>2012-05-28T19:52:31Z</time>
      </trkpt>
      <trkpt lat="-17.57758" lon="-149.51835">
        <ele>947.035889</ele>
        <time>2012-05-28T19:52:48Z</time>
      </trkpt>
      <trkpt lat="-17.57748" lon="-149.51834">
        <ele>945.113281</ele>
        <time>2012-05-28T19:53:03Z</time>
      </trkpt>
      <trkpt lat="-17.57744" lon="-149.51834">
        <ele>944.1521</ele>
        <time>2012-05-28T19:53:08Z</time>
      </trkpt>
      <trkpt lat="-17.57734" lon="-149.51834">
        <ele>942.710205</ele>
        <time>2012-05-28T19:53:23Z</time>
      </trkpt>
      <trkpt lat="-17.57731" lon="-149.51834">
        <ele>943.190674</ele>
        <time>2012-05-28T19:54:08Z</time>
      </trkpt>
      <trkpt lat="-17.57732" lon="-149.51844">
        <ele>941.748779</ele>
        <time>2012-05-28T19:54:20Z</time>
      </trkpt>
      <trkpt lat="-17.57735" lon="-149.51857">
        <ele>940.787354</ele>
        <time>2012-05-28T19:54:39Z</time>
      </trkpt>
      <trkpt lat="-17.57736" lon="-149.51875">
        <ele>938.384033</ele>
        <time>2012-05-28T19:54:54Z</time>
      </trkpt>
      <trkpt lat="-17.57723" lon="-149.51887">
        <ele>935.5</ele>
        <time>2012-05-28T19:55:13Z</time>
      </trkpt>
      <trkpt lat="-17.57712" lon="-149.51893">
        <ele>932.616211</ele>
        <time>2012-05-28T19:55:28Z</time>
      </trkpt>
      <trkpt lat="-17.57704" lon="-149.51897">
        <ele>930.693604</ele>
        <time>2012-05-28T19:55:35Z</time>
      </trkpt>
      <trkpt lat="-17.57689" lon="-149.51906">
        <ele>928.290283</ele>
        <time>2012-05-28T19:55:54Z</time>
      </trkpt>
      <trkpt lat="-17.5768" lon="-149.51916">
        <ele>925.40625</ele>
        <time>2012-05-28T19:56:09Z</time>
      </trkpt>
      <trkpt lat="-17.57675" lon="-149.51924">
        <ele>925.40625</ele>
        <time>2012-05-28T19:56:17Z</time>
      </trkpt>
      <trkpt lat="-17.57661" lon="-149.51944">
        <ele>923.964111</ele>
        <time>2012-05-28T19:56:35Z</time>
      </trkpt>
      <trkpt lat="-17.57646" lon="-149.51958">
        <ele>925.886963</ele>
        <time>2012-05-28T19:56:54Z</time>
      </trkpt>
      <trkpt lat="-17.57637" lon="-149.51975">
        <ele>923.483643</ele>
        <time>2012-05-28T19:57:12Z</time>
      </trkpt>
      <trkpt lat="-17.5763" lon="-149.51984">
        <ele>920.599609</ele>
        <time>2012-05-28T19:57:25Z</time>
      </trkpt>
      <trkpt lat="-17.5762" lon="-149.51996">
        <ele>918.677002</ele>
        <time>2012-05-28T19:57:43Z</time>
      </trkpt>
      <trkpt lat="-17.5762" lon="-149.51997">
        <ele>918.196289</ele>
        <time>2012-05-28T19:58:03Z</time>
      </trkpt>
      <trkpt lat="-17.5762" lon="-149.51997">
        <ele>918.677002</ele>
        <time>2012-05-28T19:58:10Z</time>
      </trkpt>
      <trkpt lat="-17.57619" lon="-149.51999">
        <ele>919.157715</ele>
        <time>2012-05-28T19:58:12Z</time>
      </trkpt>
      <trkpt lat="-17.57607" lon="-149.52015">
        <ele>914.831787</ele>
        <time>2012-05-28T19:58:31Z</time>
      </trkpt>
      <trkpt lat="-17.57595" lon="-149.52027">
        <ele>913.389893</ele>
        <time>2012-05-28T19:58:48Z</time>
      </trkpt>
      <trkpt lat="-17.57587" lon="-149.52033">
        <ele>910.986572</ele>
        <time>2012-05-28T19:59:00Z</time>
      </trkpt>
      <trkpt lat="-17.5758" lon="-149.5204">
        <ele>910.505859</ele>
        <time>2012-05-28T19:59:19Z</time>
      </trkpt>
      <trkpt lat="-17.57566" lon="-149.52051">
        <ele>907.621826</ele>
        <time>2012-05-28T19:59:36Z</time>
      </trkpt>
      <trkpt lat="-17.57557" lon="-149.52058">
        <ele>905.218506</ele>
        <time>2012-05-28T19:59:46Z</time>
      </trkpt>
      <trkpt lat="-17.57554" lon="-149.52062">
        <ele>904.257324</ele>
        <time>2012-05-28T19:59:51Z</time>
      </trkpt>
      <trkpt lat="-17.57546" lon="-149.5207">
        <ele>901.854004</ele>
        <time>2012-05-28T20:00:08Z</time>
      </trkpt>
      <trkpt lat="-17.57544" lon="-149.52071">
        <ele>901.854004</ele>
        <time>2012-05-28T20:00:22Z</time>
      </trkpt>
      <trkpt lat="-17.57543" lon="-149.52071">
        <ele>902.815186</ele>
        <time>2012-05-28T20:00:28Z</time>
      </trkpt>
      <trkpt lat="-17.57527" lon="-149.5208">
        <ele>898.969971</ele>
        <time>2012-05-28T20:00:49Z</time>
      </trkpt>
      <trkpt lat="-17.57526" lon="-149.52081">
        <ele>898.969971</ele>
        <time>2012-05-28T20:00:53Z</time>
      </trkpt>
      <trkpt lat="-17.57518" lon="-149.52089">
        <ele>898.008789</ele>
        <time>2012-05-28T20:01:08Z</time>
      </trkpt>
      <trkpt lat="-17.57513" lon="-149.52093">
        <ele>896.086182</ele>
        <time>2012-05-28T20:01:16Z</time>
      </trkpt>
      <trkpt lat="-17.57507" lon="-149.521">
        <ele>894.644043</ele>
        <time>2012-05-28T20:01:30Z</time>
      </trkpt>
      <trkpt lat="-17.57502" lon="-149.521">
        <ele>894.163574</ele>
        <time>2012-05-28T20:01:37Z</time>
      </trkpt>
      <trkpt lat="-17.57498" lon="-149.52108">
        <ele>892.72168</ele>
        <time>2012-05-28T20:01:52Z</time>
      </trkpt>
      <trkpt lat="-17.57497" lon="-149.5212">
        <ele>890.798584</ele>
        <time>2012-05-28T20:02:05Z</time>
      </trkpt>
      <trkpt lat="-17.57491" lon="-149.52133">
        <ele>887.434082</ele>
        <time>2012-05-28T20:02:21Z</time>
      </trkpt>
      <trkpt lat="-17.57483" lon="-149.52148">
        <ele>885.992188</ele>
        <time>2012-05-28T20:02:37Z</time>
      </trkpt>
      <trkpt lat="-17.57478" lon="-149.52158">
        <ele>884.06958</ele>
        <time>2012-05-28T20:02:55Z</time>
      </trkpt>
      <trkpt lat="-17.57476" lon="-149.52171">
        <ele>882.627686</ele>
        <time>2012-05-28T20:03:23Z</time>
      </trkpt>
      <trkpt lat="-17.57477" lon="-149.52173">
        <ele>882.627686</ele>
        <time>2012-05-28T20:03:25Z</time>
      </trkpt>
      <trkpt lat="-17.57476" lon="-149.52185">
        <ele>880.705078</ele>
        <time>2012-05-28T20:03:41Z</time>
      </trkpt>
      <trkpt lat="-17.57476" lon="-149.52186">
        <ele>880.705078</ele>
        <time>2012-05-28T20:03:42Z</time>
      </trkpt>
      <trkpt lat="-17.57467" lon="-149.52206">
        <ele>878.782471</ele>
        <time>2012-05-28T20:04:04Z</time>
      </trkpt>
      <trkpt lat="-17.57466" lon="-149.52214">
        <ele>877.821045</ele>
        <time>2012-05-28T20:04:22Z</time>
      </trkpt>
      <trkpt lat="-17.57461" lon="-149.52234">
        <ele>875.898193</ele>
        <time>2012-05-28T20:04:42Z</time>
      </trkpt>
      <trkpt lat="-17.57457" lon="-149.52242">
        <ele>874.937012</ele>
        <time>2012-05-28T20:05:08Z</time>
      </trkpt>
      <trkpt lat="-17.57456" lon="-149.52243">
        <ele>874.456299</ele>
        <time>2012-05-28T20:05:26Z</time>
      </trkpt>
      <trkpt lat="-17.57446" lon="-149.52252">
        <ele>872.052979</ele>
        <time>2012-05-28T20:05:42Z</time>
      </trkpt>
      <trkpt lat="-17.57443" lon="-149.52258">
        <ele>871.572266</ele>
        <time>2012-05-28T20:06:01Z</time>
      </trkpt>
      <trkpt lat="-17.57428" lon="-149.52282">
        <ele>870.611084</ele>
        <time>2012-05-28T20:06:25Z</time>
      </trkpt>
      <trkpt lat="-17.57424" lon="-149.523">
        <ele>869.649902</ele>
        <time>2012-05-28T20:06:43Z</time>
      </trkpt>
      <trkpt lat="-17.57422" lon="-149.52306">
        <ele>868.207764</ele>
        <time>2012-05-28T20:07:00Z</time>
      </trkpt>
      <trkpt lat="-17.57419" lon="-149.52304">
        <ele>868.207764</ele>
        <time>2012-05-28T20:07:04Z</time>
      </trkpt>
      <trkpt lat="-17.57415" lon="-149.52301">
        <ele>866.765869</ele>
        <time>2012-05-28T20:07:09Z</time>
      </trkpt>
      <trkpt lat="-17.57407" lon="-149.523">
        <ele>864.843262</ele>
        <time>2012-05-28T20:07:22Z</time>
      </trkpt>
      <trkpt lat="-17.57405" lon="-149.523">
        <ele>863.881836</ele>
        <time>2012-05-28T20:07:24Z</time>
      </trkpt>
      <trkpt lat="-17.57395" lon="-149.52302">
        <ele>862.920654</ele>
        <time>2012-05-28T20:07:41Z</time>
      </trkpt>
      <trkpt lat="-17.57391" lon="-149.52304">
        <ele>860.036621</ele>
        <time>2012-05-28T20:07:54Z</time>
      </trkpt>
      <trkpt lat="-17.57388" lon="-149.5231">
        <ele>856.671875</ele>
        <time>2012-05-28T20:08:06Z</time>
      </trkpt>
      <trkpt lat="-17.57381" lon="-149.52312">
        <ele>853.788086</ele>
        <time>2012-05-28T20:08:25Z</time>
      </trkpt>
      <trkpt lat="-17.57378" lon="-149.52318">
        <ele>849.942871</ele>
        <time>2012-05-28T20:08:43Z</time>
      </trkpt>
      <trkpt lat="-17.57372" lon="-149.52319">
        <ele>847.058838</ele>
        <time>2012-05-28T20:09:00Z</time>
      </trkpt>
      <trkpt lat="-17.57369" lon="-149.52321">
        <ele>846.097656</ele>
        <time>2012-05-28T20:09:16Z</time>
      </trkpt>
      <trkpt lat="-17.57361" lon="-149.52324">
        <ele>842.73291</ele>
        <time>2012-05-28T20:09:32Z</time>
      </trkpt>
      <trkpt lat="-17.57343" lon="-149.5233">
        <ele>840.810059</ele>
        <time>2012-05-28T20:09:48Z</time>
      </trkpt>
      <trkpt lat="-17.57334" lon="-149.52333">
        <ele>838.887695</ele>
        <time>2012-05-28T20:10:00Z</time>
      </trkpt>
      <trkpt lat="-17.57332" lon="-149.52333">
        <ele>838.887695</ele>
        <time>2012-05-28T20:10:03Z</time>
      </trkpt>
      <trkpt lat="-17.57317" lon="-149.5234">
        <ele>835.522949</ele>
        <time>2012-05-28T20:10:19Z</time>
      </trkpt>
      <trkpt lat="-17.57304" lon="-149.52347">
        <ele>833.119629</ele>
        <time>2012-05-28T20:10:34Z</time>
      </trkpt>
      <trkpt lat="-17.57298" lon="-149.52357">
        <ele>829.755127</ele>
        <time>2012-05-28T20:10:48Z</time>
      </trkpt>
      <trkpt lat="-17.57298" lon="-149.52358">
        <ele>829.274414</ele>
        <time>2012-05-28T20:10:49Z</time>
      </trkpt>
      <trkpt lat="-17.57295" lon="-149.52369">
        <ele>826.390381</ele>
        <time>2012-05-28T20:11:03Z</time>
      </trkpt>
      <trkpt lat="-17.57291" lon="-149.52374">
        <ele>823.506592</ele>
        <time>2012-05-28T20:11:16Z</time>
      </trkpt>
      <trkpt lat="-17.57286" lon="-149.52376">
        <ele>821.103271</ele>
        <time>2012-05-28T20:11:30Z</time>
      </trkpt>
      <trkpt lat="-17.57281" lon="-149.5238">
        <ele>819.180664</ele>
        <time>2012-05-28T20:11:42Z</time>
      </trkpt>
      <trkpt lat="-17.57276" lon="-149.52383">
        <ele>816.296631</ele>
        <time>2012-05-28T20:11:50Z</time>
      </trkpt>
      <trkpt lat="-17.57269" lon="-149.52393">
        <ele>813.893311</ele>
        <time>2012-05-28T20:12:15Z</time>
      </trkpt>
      <trkpt lat="-17.57261" lon="-149.52404">
        <ele>812.451416</ele>
        <time>2012-05-28T20:12:27Z</time>
      </trkpt>
      <trkpt lat="-17.57257" lon="-149.52408">
        <ele>811.009277</ele>
        <time>2012-05-28T20:12:34Z</time>
      </trkpt>
      <trkpt lat="-17.57255" lon="-149.52408">
        <ele>810.047852</ele>
        <time>2012-05-28T20:12:36Z</time>
      </trkpt>
      <trkpt lat="-17.57244" lon="-149.52422">
        <ele>811.009277</ele>
        <time>2012-05-28T20:12:52Z</time>
      </trkpt>
      <trkpt lat="-17.57242" lon="-149.52427">
        <ele>811.009277</ele>
        <time>2012-05-28T20:12:57Z</time>
      </trkpt>
      <trkpt lat="-17.57234" lon="-149.52429">
        <ele>808.125488</ele>
        <time>2012-05-28T20:13:13Z</time>
      </trkpt>
      <trkpt lat="-17.57231" lon="-149.52432">
        <ele>805.241455</ele>
        <time>2012-05-28T20:13:20Z</time>
      </trkpt>
      <trkpt lat="-17.57223" lon="-149.52433">
        <ele>801.876953</ele>
        <time>2012-05-28T20:13:34Z</time>
      </trkpt>
      <trkpt lat="-17.57223" lon="-149.52433">
        <ele>801.876953</ele>
        <time>2012-05-28T20:13:35Z</time>
      </trkpt>
      <trkpt lat="-17.5722" lon="-149.52435">
        <ele>801.39624</ele>
        <time>2012-05-28T20:13:39Z</time>
      </trkpt>
      <trkpt lat="-17.57208" lon="-149.52443">
        <ele>799.473633</ele>
        <time>2012-05-28T20:13:57Z</time>
      </trkpt>
      <trkpt lat="-17.57203" lon="-149.52444">
        <ele>795.628174</ele>
        <time>2012-05-28T20:14:06Z</time>
      </trkpt>
      <trkpt lat="-17.57201" lon="-149.52445">
        <ele>794.666748</ele>
        <time>2012-05-28T20:14:08Z</time>
      </trkpt>
      <trkpt lat="-17.57195" lon="-149.52452">
        <ele>791.302246</ele>
        <time>2012-05-28T20:14:24Z</time>
      </trkpt>
      <trkpt lat="-17.57193" lon="-149.52457">
        <ele>787.937744</ele>
        <time>2012-05-28T20:14:35Z</time>
      </trkpt>
      <trkpt lat="-17.57187" lon="-149.5246">
        <ele>785.534424</ele>
        <time>2012-05-28T20:14:50Z</time>
      </trkpt>
      <trkpt lat="-17.57185" lon="-149.52462">
        <ele>784.092529</ele>
        <time>2012-05-28T20:14:53Z</time>
      </trkpt>
      <trkpt lat="-17.5718" lon="-149.52462">
        <ele>782.650635</ele>
        <time>2012-05-28T20:15:09Z</time>
      </trkpt>
      <trkpt lat="-17.57177" lon="-149.52461">
        <ele>781.689209</ele>
        <time>2012-05-28T20:15:15Z</time>
      </trkpt>
      <trkpt lat="-17.57174" lon="-149.52462">
        <ele>780.247314</ele>
        <time>2012-05-28T20:15:19Z</time>
      </trkpt>
      <trkpt lat="-17.57164" lon="-149.52465">
        <ele>775.921143</ele>
        <time>2012-05-28T20:15:28Z</time>
      </trkpt>
      <trkpt lat="-17.57154" lon="-149.52469">
        <ele>773.998535</ele>
        <time>2012-05-28T20:15:41Z</time>
      </trkpt>
      <trkpt lat="-17.5715" lon="-149.52474">
        <ele>772.556641</ele>
        <time>2012-05-28T20:15:57Z</time>
      </trkpt>
      <trkpt lat="-17.57138" lon="-149.5248">
        <ele>773.037354</ele>
        <time>2012-05-28T20:16:12Z</time>
      </trkpt>
      <trkpt lat="-17.57129" lon="-149.52486">
        <ele>772.075928</ele>
        <time>2012-05-28T20:16:25Z</time>
      </trkpt>
      <trkpt lat="-17.57128" lon="-149.52486">
        <ele>772.075928</ele>
        <time>2012-05-28T20:16:26Z</time>
      </trkpt>
      <trkpt lat="-17.57127" lon="-149.5249">
        <ele>768.711426</ele>
        <time>2012-05-28T20:16:33Z</time>
      </trkpt>
      <trkpt lat="-17.57125" lon="-149.52499">
        <ele>767.75</ele>
        <time>2012-05-28T20:16:50Z</time>
      </trkpt>
      <trkpt lat="-17.57125" lon="-149.52508">
        <ele>764.866211</ele>
        <time>2012-05-28T20:17:05Z</time>
      </trkpt>
      <trkpt lat="-17.57123" lon="-149.52515">
        <ele>762.462646</ele>
        <time>2012-05-28T20:17:16Z</time>
      </trkpt>
      <trkpt lat="-17.57119" lon="-149.5253">
        <ele>759.098145</ele>
        <time>2012-05-28T20:17:32Z</time>
      </trkpt>
      <trkpt lat="-17.57108" lon="-149.52547">
        <ele>757.175537</ele>
        <time>2012-05-28T20:17:52Z</time>
      </trkpt>
      <trkpt lat="-17.57099" lon="-149.52557">
        <ele>756.214111</ele>
        <time>2012-05-28T20:18:07Z</time>
      </trkpt>
      <trkpt lat="-17.57096" lon="-149.52562">
        <ele>753.330322</ele>
        <time>2012-05-28T20:18:12Z</time>
      </trkpt>
      <trkpt lat="-17.57096" lon="-149.52563">
        <ele>753.330322</ele>
        <time>2012-05-28T20:18:13Z</time>
      </trkpt>
      <trkpt lat="-17.57089" lon="-149.52577">
        <ele>752.368896</ele>
        <time>2012-05-28T20:18:25Z</time>
      </trkpt>
      <trkpt lat="-17.57085" lon="-149.52586">
        <ele>753.330322</ele>
        <time>2012-05-28T20:18:33Z</time>
      </trkpt>
      <trkpt lat="-17.57076" lon="-149.52603">
        <ele>754.291748</ele>
        <time>2012-05-28T20:18:47Z</time>
      </trkpt>
      <trkpt lat="-17.57069" lon="-149.52609">
        <ele>753.811035</ele>
        <time>2012-05-28T20:19:01Z</time>
      </trkpt>
      <trkpt lat="-17.57063" lon="-149.52615">
        <ele>750.927002</ele>
        <time>2012-05-28T20:19:11Z</time>
      </trkpt>
      <trkpt lat="-17.57056" lon="-149.5262">
        <ele>749.004395</ele>
        <time>2012-05-28T20:19:25Z</time>
      </trkpt>
      <trkpt lat="-17.57045" lon="-149.52627">
        <ele>745.158936</ele>
        <time>2012-05-28T20:19:40Z</time>
      </trkpt>
      <trkpt lat="-17.57045" lon="-149.52628">
        <ele>744.678223</ele>
        <time>2012-05-28T20:19:42Z</time>
      </trkpt>
      <trkpt lat="-17.57044" lon="-149.5263">
        <ele>743.236328</ele>
        <time>2012-05-28T20:19:45Z</time>
      </trkpt>
      <trkpt lat="-17.57042" lon="-149.52632">
        <ele>741.794434</ele>
        <time>2012-05-28T20:19:48Z</time>
      </trkpt>
      <trkpt lat="-17.5704" lon="-149.52633">
        <ele>740.833008</ele>
        <time>2012-05-28T20:19:53Z</time>
      </trkpt>
      <trkpt lat="-17.57038" lon="-149.52636">
        <ele>739.391113</ele>
        <time>2012-05-28T20:20:08Z</time>
      </trkpt>
      <trkpt lat="-17.57036" lon="-149.52635">
        <ele>739.391113</ele>
        <time>2012-05-28T20:20:28Z</time>
      </trkpt>
      <trkpt lat="-17.57036" lon="-149.52641">
        <ele>736.987793</ele>
        <time>2012-05-28T20:20:46Z</time>
      </trkpt>
      <trkpt lat="-17.57036" lon="-149.52642">
        <ele>736.026611</ele>
        <time>2012-05-28T20:20:50Z</time>
      </trkpt>
      <trkpt lat="-17.57033" lon="-149.52648">
        <ele>735.06543</ele>
        <time>2012-05-28T20:21:03Z</time>
      </trkpt>
      <trkpt lat="-17.5703" lon="-149.52648">
        <ele>732.662109</ele>
        <time>2012-05-28T20:21:09Z</time>
      </trkpt>
      <trkpt lat="-17.57027" lon="-149.52641">
        <ele>729.297119</ele>
        <time>2012-05-28T20:21:18Z</time>
      </trkpt>
      <trkpt lat="-17.57018" lon="-149.52632">
        <ele>728.335938</ele>
        <time>2012-05-28T20:21:37Z</time>
      </trkpt>
      <trkpt lat="-17.57017" lon="-149.52631">
        <ele>728.81665</ele>
        <time>2012-05-28T20:21:38Z</time>
      </trkpt>
      <trkpt lat="-17.57013" lon="-149.52628">
        <ele>726.894043</ele>
        <time>2012-05-28T20:21:47Z</time>
      </trkpt>
      <trkpt lat="-17.57015" lon="-149.52619">
        <ele>724.971436</ele>
        <time>2012-05-28T20:21:59Z</time>
      </trkpt>
      <trkpt lat="-17.57021" lon="-149.5261">
        <ele>724.490723</ele>
        <time>2012-05-28T20:22:13Z</time>
      </trkpt>
      <trkpt lat="-17.57021" lon="-149.52609">
        <ele>722.568115</ele>
        <time>2012-05-28T20:22:16Z</time>
      </trkpt>
      <trkpt lat="-17.57023" lon="-149.52604">
        <ele>722.568115</ele>
        <time>2012-05-28T20:22:20Z</time>
      </trkpt>
      <trkpt lat="-17.5703" lon="-149.52589">
        <ele>721.126221</ele>
        <time>2012-05-28T20:22:36Z</time>
      </trkpt>
      <trkpt lat="-17.57031" lon="-149.52588">
        <ele>720.645508</ele>
        <time>2012-05-28T20:22:37Z</time>
      </trkpt>
      <trkpt lat="-17.57031" lon="-149.52586">
        <ele>720.164795</ele>
        <time>2012-05-28T20:22:38Z</time>
      </trkpt>
      <trkpt lat="-17.57036" lon="-149.52573">
        <ele>716.800293</ele>
        <time>2012-05-28T20:22:52Z</time>
      </trkpt>
      <trkpt lat="-17.57029" lon="-149.52566">
        <ele>713.435547</ele>
        <time>2012-05-28T20:23:06Z</time>
      </trkpt>
      <trkpt lat="-17.57016" lon="-149.52567">
        <ele>710.551514</ele>
        <time>2012-05-28T20:23:18Z</time>
      </trkpt>
      <trkpt lat="-17.57006" lon="-149.52572">
        <ele>708.628906</ele>
        <time>2012-05-28T20:23:33Z</time>
      </trkpt>
      <trkpt lat="-17.56999" lon="-149.52576">
        <ele>707.187012</ele>
        <time>2012-05-28T20:23:48Z</time>
      </trkpt>
      <trkpt lat="-17.56989" lon="-149.52577">
        <ele>707.187012</ele>
        <time>2012-05-28T20:24:03Z</time>
      </trkpt>
      <trkpt lat="-17.56979" lon="-149.52581">
        <ele>704.783691</ele>
        <time>2012-05-28T20:24:21Z</time>
      </trkpt>
      <trkpt lat="-17.5697" lon="-149.52585">
        <ele>704.783691</ele>
        <time>2012-05-28T20:24:36Z</time>
      </trkpt>
      <trkpt lat="-17.56966" lon="-149.52589">
        <ele>703.82251</ele>
        <time>2012-05-28T20:24:42Z</time>
      </trkpt>
      <trkpt lat="-17.56953" lon="-149.52605">
        <ele>700.458008</ele>
        <time>2012-05-28T20:24:59Z</time>
      </trkpt>
      <trkpt lat="-17.56944" lon="-149.52619">
        <ele>697.57373</ele>
        <time>2012-05-28T20:25:16Z</time>
      </trkpt>
      <trkpt lat="-17.56938" lon="-149.52633">
        <ele>695.651123</ele>
        <time>2012-05-28T20:25:34Z</time>
      </trkpt>
      <trkpt lat="-17.56935" lon="-149.52645">
        <ele>691.805908</ele>
        <time>2012-05-28T20:25:50Z</time>
      </trkpt>
      <trkpt lat="-17.56934" lon="-149.52646">
        <ele>691.805908</ele>
        <time>2012-05-28T20:25:51Z</time>
      </trkpt>
      <trkpt lat="-17.5693" lon="-149.52658">
        <ele>689.883301</ele>
        <time>2012-05-28T20:26:06Z</time>
      </trkpt>
      <trkpt lat="-17.56922" lon="-149.52664">
        <ele>687.47998</ele>
        <time>2012-05-28T20:26:20Z</time>
      </trkpt>
      <trkpt lat="-17.56911" lon="-149.52679">
        <ele>685.076904</ele>
        <time>2012-05-28T20:26:38Z</time>
      </trkpt>
      <trkpt lat="-17.569" lon="-149.52693">
        <ele>684.115479</ele>
        <time>2012-05-28T20:26:57Z</time>
      </trkpt>
      <trkpt lat="-17.56892" lon="-149.52702">
        <ele>683.153809</ele>
        <time>2012-05-28T20:27:14Z</time>
      </trkpt>
      <trkpt lat="-17.56885" lon="-149.52707">
        <ele>681.231445</ele>
        <time>2012-05-28T20:27:32Z</time>
      </trkpt>
      <trkpt lat="-17.56873" lon="-149.52708">
        <ele>678.828125</ele>
        <time>2012-05-28T20:27:48Z</time>
      </trkpt>
      <trkpt lat="-17.56858" lon="-149.527">
        <ele>676.424805</ele>
        <time>2012-05-28T20:28:07Z</time>
      </trkpt>
      <trkpt lat="-17.56855" lon="-149.52698">
        <ele>675.463379</ele>
        <time>2012-05-28T20:28:11Z</time>
      </trkpt>
      <trkpt lat="-17.56847" lon="-149.52699">
        <ele>675.944092</ele>
        <time>2012-05-28T20:28:17Z</time>
      </trkpt>
      <trkpt lat="-17.5684" lon="-149.52708">
        <ele>672.57959</ele>
        <time>2012-05-28T20:28:31Z</time>
      </trkpt>
      <trkpt lat="-17.56829" lon="-149.52711">
        <ele>671.137695</ele>
        <time>2012-05-28T20:28:47Z</time>
      </trkpt>
      <trkpt lat="-17.56816" lon="-149.52712">
        <ele>668.734375</ele>
        <time>2012-05-28T20:29:06Z</time>
      </trkpt>
      <trkpt lat="-17.56804" lon="-149.52715">
        <ele>666.330811</ele>
        <time>2012-05-28T20:29:22Z</time>
      </trkpt>
      <trkpt lat="-17.568" lon="-149.52715">
        <ele>665.850342</ele>
        <time>2012-05-28T20:29:28Z</time>
      </trkpt>
      <trkpt lat="-17.56784" lon="-149.52717">
        <ele>663.447021</ele>
        <time>2012-05-28T20:29:47Z</time>
      </trkpt>
      <trkpt lat="-17.56783" lon="-149.52718">
        <ele>662.005127</ele>
        <time>2012-05-28T20:29:49Z</time>
      </trkpt>
      <trkpt lat="-17.56773" lon="-149.52722">
        <ele>659.601807</ele>
        <time>2012-05-28T20:30:08Z</time>
      </trkpt>
      <trkpt lat="-17.56757" lon="-149.52728">
        <ele>657.679199</ele>
        <time>2012-05-28T20:30:26Z</time>
      </trkpt>
      <trkpt lat="-17.56743" lon="-149.52736">
        <ele>655.756592</ele>
        <time>2012-05-28T20:30:40Z</time>
      </trkpt>
      <trkpt lat="-17.56729" lon="-149.52744">
        <ele>654.795166</ele>
        <time>2012-05-28T20:30:58Z</time>
      </trkpt>
      <trkpt lat="-17.56713" lon="-149.52752">
        <ele>654.314697</ele>
        <time>2012-05-28T20:31:16Z</time>
      </trkpt>
      <trkpt lat="-17.5669" lon="-149.52763">
        <ele>654.795166</ele>
        <time>2012-05-28T20:31:38Z</time>
      </trkpt>
      <trkpt lat="-17.56669" lon="-149.52779">
        <ele>653.833984</ele>
        <time>2012-05-28T20:31:59Z</time>
      </trkpt>
      <trkpt lat="-17.56663" lon="-149.52784">
        <ele>652.872559</ele>
        <time>2012-05-28T20:32:06Z</time>
      </trkpt>
      <trkpt lat="-17.5666" lon="-149.52786">
        <ele>653.353271</ele>
        <time>2012-05-28T20:32:09Z</time>
      </trkpt>
      <trkpt lat="-17.56655" lon="-149.52792">
        <ele>651.911133</ele>
        <time>2012-05-28T20:32:15Z</time>
      </trkpt>
      <trkpt lat="-17.5663" lon="-149.52818">
        <ele>651.911133</ele>
        <time>2012-05-28T20:32:40Z</time>
      </trkpt>
      <trkpt lat="-17.56613" lon="-149.52835">
        <ele>654.795166</ele>
        <time>2012-05-28T20:32:57Z</time>
      </trkpt>
      <trkpt lat="-17.56603" lon="-149.52842">
        <ele>655.275879</ele>
        <time>2012-05-28T20:33:11Z</time>
      </trkpt>
      <trkpt lat="-17.56599" lon="-149.52842">
        <ele>655.275879</ele>
        <time>2012-05-28T20:33:24Z</time>
      </trkpt>
      <trkpt lat="-17.56599" lon="-149.52842">
        <ele>654.314697</ele>
        <time>2012-05-28T20:33:36Z</time>
      </trkpt>
      <trkpt lat="-17.56589" lon="-149.52846">
        <ele>653.833984</ele>
        <time>2012-05-28T20:33:52Z</time>
      </trkpt>
      <trkpt lat="-17.56588" lon="-149.52848">
        <ele>653.353271</ele>
        <time>2012-05-28T20:33:54Z</time>
      </trkpt>
      <trkpt lat="-17.5658" lon="-149.52851">
        <ele>651.43042</ele>
        <time>2012-05-28T20:34:02Z</time>
      </trkpt>
      <trkpt lat="-17.56565" lon="-149.52865">
        <ele>649.507812</ele>
        <time>2012-05-28T20:34:17Z</time>
      </trkpt>
      <trkpt lat="-17.56557" lon="-149.52874">
        <ele>646.624023</ele>
        <time>2012-05-28T20:34:27Z</time>
      </trkpt>
      <trkpt lat="-17.56552" lon="-149.52875">
        <ele>646.143311</ele>
        <time>2012-05-28T20:34:32Z</time>
      </trkpt>
      <trkpt lat="-17.56552" lon="-149.52873">
        <ele>644.701172</ele>
        <time>2012-05-28T20:34:34Z</time>
      </trkpt>
      <trkpt lat="-17.5655" lon="-149.52872">
        <ele>645.181885</ele>
        <time>2012-05-28T20:34:48Z</time>
      </trkpt>
      <trkpt lat="-17.56557" lon="-149.52872">
        <ele>647.104492</ele>
        <time>2012-05-28T20:35:05Z</time>
      </trkpt>
      <trkpt lat="-17.56558" lon="-149.52872">
        <ele>647.104492</ele>
        <time>2012-05-28T20:35:06Z</time>
      </trkpt>
      <trkpt lat="-17.56558" lon="-149.52873">
        <ele>647.104492</ele>
        <time>2012-05-28T20:35:18Z</time>
      </trkpt>
      <trkpt lat="-17.56549" lon="-149.52873">
        <ele>644.701172</ele>
        <time>2012-05-28T20:35:25Z</time>
      </trkpt>
      <trkpt lat="-17.56543" lon="-149.52859">
        <ele>639.894775</ele>
        <time>2012-05-28T20:35:39Z</time>
      </trkpt>
      <trkpt lat="-17.56542" lon="-149.5286">
        <ele>639.894775</ele>
        <time>2012-05-28T20:35:40Z</time>
      </trkpt>
      <trkpt lat="-17.56537" lon="-149.52867">
        <ele>637.010742</ele>
        <time>2012-05-28T20:35:47Z</time>
      </trkpt>
      <trkpt lat="-17.56534" lon="-149.52881">
        <ele>636.530273</ele>
        <time>2012-05-28T20:36:03Z</time>
      </trkpt>
      <trkpt lat="-17.56526" lon="-149.52879">
        <ele>634.126709</ele>
        <time>2012-05-28T20:36:25Z</time>
      </trkpt>
      <trkpt lat="-17.56513" lon="-149.52884">
        <ele>631.723389</ele>
        <time>2012-05-28T20:36:43Z</time>
      </trkpt>
      <trkpt lat="-17.56505" lon="-149.52883">
        <ele>630.762207</ele>
        <time>2012-05-28T20:37:06Z</time>
      </trkpt>
      <trkpt lat="-17.56496" lon="-149.5289">
        <ele>629.320068</ele>
        <time>2012-05-28T20:37:23Z</time>
      </trkpt>
      <trkpt lat="-17.56488" lon="-149.52895">
        <ele>627.397705</ele>
        <time>2012-05-28T20:37:40Z</time>
      </trkpt>
      <trkpt lat="-17.56477" lon="-149.52903">
        <ele>625.474854</ele>
        <time>2012-05-28T20:37:57Z</time>
      </trkpt>
      <trkpt lat="-17.56469" lon="-149.52906">
        <ele>623.55249</ele>
        <time>2012-05-28T20:38:11Z</time>
      </trkpt>
      <trkpt lat="-17.56465" lon="-149.52906">
        <ele>620.668457</ele>
        <time>2012-05-28T20:38:23Z</time>
      </trkpt>
      <trkpt lat="-17.56468" lon="-149.52895">
        <ele>620.187744</ele>
        <time>2012-05-28T20:38:38Z</time>
      </trkpt>
      <trkpt lat="-17.56467" lon="-149.52892">
        <ele>620.187744</ele>
        <time>2012-05-28T20:38:56Z</time>
      </trkpt>
      <trkpt lat="-17.56468" lon="-149.52891">
        <ele>620.668457</ele>
        <time>2012-05-28T20:39:27Z</time>
      </trkpt>
      <trkpt lat="-17.56466" lon="-149.52892">
        <ele>620.187744</ele>
        <time>2012-05-28T20:39:30Z</time>
      </trkpt>
      <trkpt lat="-17.56454" lon="-149.52896">
        <ele>617.78418</ele>
        <time>2012-05-28T20:39:43Z</time>
      </trkpt>
      <trkpt lat="-17.56443" lon="-149.52904">
        <ele>615.861816</ele>
        <time>2012-05-28T20:39:59Z</time>
      </trkpt>
      <trkpt lat="-17.56438" lon="-149.52914">
        <ele>614.419678</ele>
        <time>2012-05-28T20:40:13Z</time>
      </trkpt>
      <trkpt lat="-17.56424" lon="-149.5292">
        <ele>611.535889</ele>
        <time>2012-05-28T20:40:29Z</time>
      </trkpt>
      <trkpt lat="-17.56404" lon="-149.52923">
        <ele>609.613281</ele>
        <time>2012-05-28T20:40:45Z</time>
      </trkpt>
      <trkpt lat="-17.56403" lon="-149.52923">
        <ele>609.613281</ele>
        <time>2012-05-28T20:40:46Z</time>
      </trkpt>
      <trkpt lat="-17.56393" lon="-149.52937">
        <ele>606.729248</ele>
        <time>2012-05-28T20:41:01Z</time>
      </trkpt>
      <trkpt lat="-17.56394" lon="-149.52948">
        <ele>605.287354</ele>
        <time>2012-05-28T20:41:11Z</time>
      </trkpt>
      <trkpt lat="-17.56395" lon="-149.5295">
        <ele>604.326172</ele>
        <time>2012-05-28T20:41:13Z</time>
      </trkpt>
      <trkpt lat="-17.564" lon="-149.52967">
        <ele>601.441895</ele>
        <time>2012-05-28T20:41:28Z</time>
      </trkpt>
      <trkpt lat="-17.56391" lon="-149.52984">
        <ele>600.480713</ele>
        <time>2012-05-28T20:41:43Z</time>
      </trkpt>
      <trkpt lat="-17.56377" lon="-149.53001">
        <ele>599.519287</ele>
        <time>2012-05-28T20:42:01Z</time>
      </trkpt>
      <trkpt lat="-17.5637" lon="-149.53006">
        <ele>599.038574</ele>
        <time>2012-05-28T20:42:08Z</time>
      </trkpt>
    </trkseg>
  </trk>
</gpx>